Time;durP1;ratioP1;P1;durP2;ratioP2;P2;SDS_P1;SDS_P2;PMS_P1;PMS_P2;Temp;Humidity;BMP_temperature;BMP_pressure;BME280_temperature;BME280_humidity;BME280_pressure;Samples;Min_cycle;Max_cycle;Signal;HPM_P1;HPM_P2
2023/11/12 00:02:07;;;;;;;6.40;5.80;;;6.80;99.90;;;;;;5086176;28;20268;-67
2023/11/12 00:04:35;;;;;;;6.43;5.93;;;6.80;99.90;;;;;;5084522;28;20634;-67
2023/11/12 00:07:02;;;;;;;6.73;6.07;;;6.90;99.90;;;;;;5086001;28;20273;-67
2023/11/12 00:09:29;;;;;;;6.60;6.10;;;6.90;99.90;;;;;;5086522;28;20672;-67
2023/11/12 00:11:56;;;;;;;7.10;6.50;;;6.90;99.90;;;;;;5086554;28;20244;-67
2023/11/12 00:14:24;;;;;;;7.63;6.93;;;6.80;99.90;;;;;;5086462;28;20206;-67
2023/11/12 00:16:50;;;;;;;6.60;6.00;;;6.80;99.90;;;;;;5085835;28;20229;-67
2023/11/12 00:19:18;;;;;;;7.87;6.80;;;6.80;99.90;;;;;;5090056;28;20674;-67
2023/11/12 00:21:47;;;;;;;7.53;6.47;;;6.80;99.90;;;;;;5074434;28;20210;-67
2023/11/12 00:24:17;;;;;;;7.07;6.47;;;6.80;99.90;;;;;;5085693;28;20207;-69
2023/11/12 00:26:47;;;;;;;6.40;5.90;;;6.70;99.90;;;;;;5086140;28;20234;-70
2023/11/12 00:29:14;;;;;;;6.37;5.87;;;6.80;99.90;;;;;;5085531;28;20218;-68
2023/11/12 00:31:41;;;;;;;7.50;6.70;;;6.80;99.90;;;;;;5085713;28;20323;-68
2023/11/12 00:34:08;;;;;;;6.93;6.33;;;6.80;99.90;;;;;;5085896;28;20294;-68
2023/11/12 00:36:36;;;;;;;7.20;6.60;;;6.80;99.90;;;;;;5085676;28;20906;-68
2023/11/12 00:39:04;;;;;;;7.17;6.57;;;6.80;99.90;;;;;;5085790;28;20207;-69
2023/11/12 00:41:31;;;;;;;7.13;6.17;;;6.70;99.90;;;;;;5085729;28;20207;-68
2023/11/12 00:43:58;;;;;;;7.30;6.70;;;6.80;99.90;;;;;;5085897;28;20213;-68
2023/11/12 00:46:26;;;;;;;6.90;6.30;;;6.70;99.90;;;;;;5085655;28;20305;-68
2023/11/12 00:48:53;;;;;;;7.23;6.53;;;6.80;99.90;;;;;;5085512;28;20210;-68
2023/11/12 00:51:20;;;;;;;7.30;6.70;;;6.80;99.90;;;;;;5075033;28;20349;-68
2023/11/12 00:53:47;;;;;;;7.23;6.53;;;6.80;99.90;;;;;;5085394;28;20313;-68
2023/11/12 00:56:15;;;;;;;6.20;5.70;;;6.80;99.90;;;;;;5084977;28;20275;-68
2023/11/12 00:58:42;;;;;;;5.87;5.40;;;6.90;99.90;;;;;;5085365;28;20286;-68
2023/11/12 01:01:09;;;;;;;7.13;6.33;;;7.00;99.90;;;;;;5085139;28;20207;-68
2023/11/12 01:03:36;;;;;;;6.40;5.90;;;6.90;99.90;;;;;;5085182;28;20238;-67
2023/11/12 01:06:03;;;;;;;6.80;6.20;;;6.90;99.90;;;;;;5084437;28;20735;-68
2023/11/12 01:08:30;;;;;;;6.07;5.60;;;6.80;99.90;;;;;;5084778;28;20326;-68
2023/11/12 01:10:57;;;;;;;6.30;5.70;;;6.80;99.90;;;;;;5084376;28;20848;-68
2023/11/12 01:13:26;;;;;;;5.87;5.33;;;6.80;99.90;;;;;;5084650;28;20203;-67
2023/11/12 01:15:53;;;;;;;6.47;5.97;;;6.70;99.90;;;;;;5084518;28;20222;-67
2023/11/12 01:18:20;;;;;;;5.77;5.27;;;6.70;99.90;;;;;;5084738;28;20827;-67
2023/11/12 01:20:48;;;;;;;6.33;5.83;;;6.60;99.90;;;;;;5084748;28;20211;-66
2023/11/12 01:23:16;;;;;;;6.67;5.63;;;6.70;99.90;;;;;;5084266;28;20312;-67
2023/11/12 01:25:43;;;;;;;6.27;5.70;;;6.70;99.90;;;;;;5084999;28;20214;-66
2023/11/12 01:28:11;;;;;;;5.90;5.40;;;6.70;99.90;;;;;;5083888;28;20736;-67
2023/11/12 01:30:40;;;;;;;5.50;5.00;;;6.70;99.90;;;;;;5084561;28;20207;-66
2023/11/12 01:33:07;;;;;;;5.27;4.87;;;6.70;99.90;;;;;;5084839;28;20222;-66
2023/11/12 01:35:34;;;;;;;6.20;5.70;;;6.70;99.90;;;;;;5084943;28;20238;-66
2023/11/12 01:38:01;;;;;;;5.90;5.40;;;6.80;99.90;;;;;;5084514;28;20293;-67
2023/11/12 01:40:28;;;;;;;6.63;5.20;;;6.70;99.90;;;;;;5084235;28;20286;-66
2023/11/12 01:42:55;;;;;;;5.40;5.00;;;6.70;99.90;;;;;;5084546;28;20217;-66
2023/11/12 01:45:22;;;;;;;5.47;5.07;;;6.70;99.90;;;;;;5084409;28;20210;-66
2023/11/12 01:47:51;;;;;;;5.37;4.97;;;6.60;99.90;;;;;;5084384;28;20206;-66
2023/11/12 01:50:20;;;;;;;5.17;4.77;;;6.70;99.90;;;;;;5084025;28;20238;-67
2023/11/12 01:52:49;;;;;;;5.27;4.87;;;6.70;99.90;;;;;;5084173;28;20807;-67
2023/11/12 01:55:19;;;;;;;5.47;4.97;;;6.70;99.90;;;;;;5084191;28;20214;-67
2023/11/12 01:57:47;;;;;;;4.93;4.53;;;6.70;99.90;;;;;;5084721;28;20195;-66
2023/11/12 02:00:16;;;;;;;5.40;4.93;;;6.60;99.90;;;;;;5084617;28;20479;-66
2023/11/12 02:02:43;;;;;;;5.53;4.97;;;6.60;99.90;;;;;;5084287;28;20242;-67
2023/11/12 02:05:12;;;;;;;5.33;4.90;;;6.70;99.90;;;;;;5084588;28;20297;-66
2023/11/12 02:07:42;;;;;;;5.00;4.63;;;6.70;99.90;;;;;;5084557;28;20231;-66
2023/11/12 02:10:13;;;;;;;5.00;4.60;;;6.80;99.90;;;;;;5074539;28;20286;-67
2023/11/12 02:12:43;;;;;;;5.47;4.83;;;6.80;99.90;;;;;;5084634;28;20259;-66
2023/11/12 02:15:11;;;;;;;4.83;4.43;;;6.80;99.90;;;;;;5084520;28;20230;-67
2023/11/12 02:17:38;;;;;;;5.03;4.63;;;6.80;99.90;;;;;;5084117;28;20210;-66
2023/11/12 02:20:07;;;;;;;5.00;4.60;;;6.80;99.90;;;;;;5084310;28;20268;-66
2023/11/12 02:22:36;;;;;;;4.60;4.30;;;6.80;99.90;;;;;;5084161;28;20215;-66
2023/11/12 02:25:05;;;;;;;6.53;5.00;;;6.80;99.90;;;;;;5083737;28;20217;-66
2023/11/12 02:27:32;;;;;;;5.60;5.10;;;6.80;99.90;;;;;;5084085;28;20297;-66
2023/11/12 02:29:59;;;;;;;5.20;4.80;;;6.80;99.90;;;;;;5084141;28;20232;-67
2023/11/12 02:32:31;;;;;;;5.53;5.03;;;6.80;99.90;;;;;;5084442;28;20329;-67
2023/11/12 02:34:58;;;;;;;5.00;4.60;;;6.80;99.90;;;;;;5084328;28;20653;-67
2023/11/12 02:37:25;;;;;;;5.33;4.83;;;6.80;99.90;;;;;;5084069;28;20213;-67
2023/11/12 02:39:52;;;;;;;5.47;5.07;;;6.80;99.90;;;;;;5085367;28;20202;-67
2023/11/12 02:42:21;;;;;;;5.53;5.00;;;6.80;99.90;;;;;;5087675;28;20282;-67
2023/11/12 02:44:48;;;;;;;4.83;4.53;;;6.80;99.90;;;;;;5087755;28;20221;-67
2023/11/12 02:47:15;;;;;;;5.30;4.90;;;6.90;99.90;;;;;;5087522;28;20229;-66
2023/11/12 02:49:57;;;;;;;5.23;4.83;;;6.90;99.90;;;;;;5095367;28;20207;-67
2023/11/12 02:52:24;;;;;;;5.10;4.70;;;6.90;99.90;;;;;;5107584;28;20314;-68
2023/11/12 02:54:51;;;;;;;5.67;4.70;;;6.90;99.90;;;;;;5108066;28;20209;-67
2023/11/12 02:57:21;;;;;;;5.30;4.93;;;6.80;99.90;;;;;;5107672;28;20212;-67
2023/11/12 02:59:49;;;;;;;5.40;5.00;;;6.80;99.90;;;;;;5108303;28;20210;-67
2023/11/12 03:02:16;;;;;;;5.37;4.87;;;6.90;99.90;;;;;;5088063;28;20206;-67
2023/11/12 03:04:43;;;;;;;5.17;4.77;;;6.90;99.90;;;;;;5087611;28;20248;-68
2023/11/12 03:07:11;;;;;;;5.17;4.80;;;6.90;99.90;;;;;;5087238;28;20689;-67
2023/11/12 03:09:39;;;;;;;5.17;4.77;;;6.80;99.90;;;;;;5087219;28;20256;-67
2023/11/12 03:12:06;;;;;;;5.27;4.87;;;6.80;99.90;;;;;;5087176;28;20530;-68
2023/11/12 03:14:33;;;;;;;5.47;5.07;;;6.80;99.90;;;;;;5087216;28;20302;-67
2023/11/12 03:17:01;;;;;;;5.20;4.80;;;6.70;99.90;;;;;;5086865;28;20296;-67
2023/11/12 03:19:28;;;;;;;6.73;5.40;;;6.80;99.90;;;;;;5087104;28;20211;-67
2023/11/12 03:21:55;;;;;;;5.60;5.10;;;6.80;99.90;;;;;;5087080;28;20373;-67
2023/11/12 03:24:22;;;;;;;5.20;4.80;;;6.80;99.90;;;;;;5087151;28;20645;-67
2023/11/12 03:26:52;;;;;;;5.40;5.00;;;6.90;99.90;;;;;;5086758;28;20252;-67
2023/11/12 03:29:19;;;;;;;5.40;5.00;;;6.90;99.90;;;;;;5087145;28;20280;-67
2023/11/12 03:31:48;;;;;;;5.07;4.67;;;6.90;99.90;;;;;;5086362;28;20319;-67
2023/11/12 03:34:17;;;;;;;5.57;5.10;;;6.80;99.90;;;;;;5086864;28;20203;-67
2023/11/12 03:36:44;;;;;;;5.17;4.77;;;6.80;99.90;;;;;;5086860;28;20199;-67
2023/11/12 03:39:11;;;;;;;5.00;4.63;;;6.90;99.90;;;;;;5086229;28;20294;-67
2023/11/12 03:41:38;;;;;;;5.27;4.77;;;6.90;99.90;;;;;;5086595;28;20744;-67
2023/11/12 03:44:05;;;;;;;4.80;4.37;;;6.80;99.90;;;;;;5086442;28;20217;-67
2023/11/12 03:46:34;;;;;;;4.53;4.23;;;6.80;99.90;;;;;;5086742;28;20718;-67
2023/11/12 03:49:01;;;;;;;5.20;4.80;;;6.80;99.90;;;;;;5084918;28;20597;-67
2023/11/12 03:51:29;;;;;;;4.83;4.43;;;6.90;99.90;;;;;;5068969;28;20199;-67
2023/11/12 03:53:58;;;;;;;4.67;4.37;;;6.80;99.90;;;;;;5093039;28;20632;-66
2023/11/12 03:56:25;;;;;;;4.93;4.53;;;6.80;99.90;;;;;;5086890;28;20973;-66
2023/11/12 03:58:52;;;;;;;5.03;4.57;;;6.80;99.90;;;;;;5092116;28;20995;-66
2023/11/12 04:01:18;;;;;;;4.93;4.53;;;6.90;99.90;;;;;;5087223;28;20603;-66
2023/11/12 04:03:45;;;;;;;4.73;4.43;;;6.90;99.90;;;;;;5086639;28;20279;-66
2023/11/12 04:06:12;;;;;;;4.83;4.43;;;6.80;99.90;;;;;;5086225;28;20254;-67
2023/11/12 04:08:40;;;;;;;5.10;4.53;;;6.70;99.90;;;;;;5086550;28;20330;-66
2023/11/12 04:11:07;;;;;;;4.67;4.37;;;6.70;99.90;;;;;;5086156;28;20219;-66
2023/11/12 04:13:34;;;;;;;5.30;4.90;;;6.70;99.90;;;;;;5086222;28;20227;-67
2023/11/12 04:16:01;;;;;;;4.67;4.30;;;6.70;99.90;;;;;;5086159;28;20318;-66
2023/11/12 04:18:28;;;;;;;4.80;4.47;;;6.70;99.90;;;;;;5085914;28;20323;-67
2023/11/12 04:20:54;;;;;;;4.60;4.30;;;6.70;99.90;;;;;;5086003;28;20222;-67
2023/11/12 04:23:21;;;;;;;5.17;4.77;;;6.80;99.90;;;;;;5085645;28;20657;-69
2023/11/12 04:25:50;;;;;;;4.80;4.50;;;6.70;99.90;;;;;;5086276;28;20233;-67
2023/11/12 04:28:16;;;;;;;5.07;4.67;;;6.80;99.90;;;;;;5085868;28;20241;-67
2023/11/12 04:30:43;;;;;;;6.93;4.70;;;6.80;99.90;;;;;;5085436;28;20198;-67
2023/11/12 04:33:10;;;;;;;4.90;4.40;;;6.80;99.90;;;;;;5085815;28;20233;-67
2023/11/12 04:35:37;;;;;;;4.73;4.33;;;6.80;99.90;;;;;;5085470;28;20241;-67
2023/11/12 04:38:04;;;;;;;5.00;4.60;;;6.90;99.90;;;;;;5085768;28;20218;-67
2023/11/12 04:40:31;;;;;;;5.37;4.50;;;6.90;99.90;;;;;;5085826;28;20221;-67
2023/11/12 04:43:00;;;;;;;4.70;4.40;;;6.90;99.90;;;;;;5085733;28;20680;-67
2023/11/12 04:45:27;;;;;;;4.40;4.10;;;7.00;99.90;;;;;;5085266;28;20248;-67
2023/11/12 04:47:55;;;;;;;4.70;4.30;;;7.00;99.90;;;;;;5085828;28;20242;-67
2023/11/12 04:50:22;;;;;;;4.63;4.30;;;7.00;99.90;;;;;;5085601;28;20302;-68
2023/11/12 04:52:49;;;;;;;4.00;3.70;;;7.10;99.90;;;;;;5085061;28;20245;-68
2023/11/12 04:55:16;;;;;;;4.27;3.97;;;7.00;99.90;;;;;;5085105;28;20306;-67
2023/11/12 04:57:43;;;;;;;4.93;4.53;;;7.10;99.90;;;;;;5084909;28;20298;-68
2023/11/12 05:00:12;;;;;;;4.17;3.87;;;7.10;99.90;;;;;;5084948;28;20325;-67
2023/11/12 05:02:40;;;;;;;4.50;4.20;;;7.10;99.90;;;;;;5064382;28;20212;-68
2023/11/12 05:05:07;;;;;;;4.23;3.93;;;7.10;99.90;;;;;;5064506;28;20215;-68
2023/11/12 05:07:34;;;;;;;4.60;4.20;;;7.10;99.90;;;;;;5067549;28;20238;-68
2023/11/12 05:10:01;;;;;;;4.73;4.40;;;7.10;99.90;;;;;;5085305;28;20302;-68
2023/11/12 05:12:28;;;;;;;4.63;4.23;;;7.00;99.90;;;;;;5085428;28;20234;-68
2023/11/12 05:14:55;;;;;;;3.80;3.60;;;7.00;99.90;;;;;;5085370;28;20766;-67
2023/11/12 05:17:24;;;;;;;4.57;4.27;;;6.90;99.90;;;;;;5084806;28;20214;-68
2023/11/12 05:19:51;;;;;;;7.57;4.63;;;7.00;99.90;;;;;;5084870;28;20330;-67
2023/11/12 05:22:19;;;;;;;5.73;4.30;;;7.00;99.90;;;;;;5084623;28;20301;-68
2023/11/12 05:24:46;;;;;;;5.30;4.80;;;7.10;99.90;;;;;;5085051;28;20206;-68
2023/11/12 05:27:13;;;;;;;4.90;4.50;;;7.10;99.90;;;;;;5084862;28;21035;-68
2023/11/12 05:29:41;;;;;;;4.17;3.93;;;7.10;99.90;;;;;;5085040;28;20203;-68
2023/11/12 05:32:09;;;;;;;4.83;4.50;;;7.10;99.90;;;;;;5084181;28;20735;-68
2023/11/12 05:34:37;;;;;;;4.53;4.23;;;7.10;99.90;;;;;;5085019;28;20240;-68
2023/11/12 05:37:04;;;;;;;4.77;4.47;;;7.10;99.90;;;;;;5084578;28;20285;-68
2023/11/12 05:39:33;;;;;;;4.67;4.37;;;7.10;99.90;;;;;;5084559;28;20290;-68
2023/11/12 05:42:00;;;;;;;4.93;4.53;;;7.10;99.90;;;;;;5084443;28;20661;-67
2023/11/12 05:44:28;;;;;;;4.67;4.37;;;7.10;99.90;;;;;;5084424;28;20737;-69
2023/11/12 05:46:55;;;;;;;4.87;4.40;;;7.10;99.90;;;;;;5084090;28;20202;-67
2023/11/12 05:49:22;;;;;;;4.80;4.50;;;7.10;99.90;;;;;;5084032;28;20249;-68
2023/11/12 05:51:50;;;;;;;5.60;4.13;;;7.10;99.90;;;;;;5084049;28;20246;-68
2023/11/12 05:54:17;;;;;;;5.93;4.27;;;7.10;99.90;;;;;;5084119;28;20338;-67
2023/11/12 05:56:44;;;;;;;4.80;4.50;;;7.10;99.90;;;;;;5084450;28;20216;-68
2023/11/12 05:59:11;;;;;;;4.00;3.60;;;7.20;99.90;;;;;;5084364;28;20248;-68
2023/11/12 06:01:38;;;;;;;4.63;4.23;;;7.20;99.90;;;;;;5084366;28;20337;-68
2023/11/12 06:04:05;;;;;;;4.30;3.90;;;7.20;99.90;;;;;;5084319;28;20215;-68
2023/11/12 06:06:32;;;;;;;4.17;3.90;;;7.10;99.90;;;;;;5084397;28;20302;-68
2023/11/12 06:09:01;;;;;;;4.63;4.23;;;7.10;99.90;;;;;;5084736;28;20282;-67
2023/11/12 06:11:27;;;;;;;4.20;3.90;;;7.00;99.90;;;;;;5084686;28;20233;-68
2023/11/12 06:13:54;;;;;;;4.67;4.37;;;6.90;99.90;;;;;;5084373;28;20468;-68
2023/11/12 06:16:21;;;;;;;4.53;4.23;;;6.90;99.90;;;;;;5087690;28;20314;-68
2023/11/12 06:18:49;;;;;;;4.57;4.17;;;6.90;99.90;;;;;;5088411;28;20698;-67
2023/11/12 06:21:16;;;;;;;4.50;4.10;;;6.90;99.90;;;;;;5087951;28;20213;-68
2023/11/12 06:23:45;;;;;;;4.43;4.13;;;6.90;99.90;;;;;;5087726;28;20293;-68
2023/11/12 06:26:13;;;;;;;4.60;4.30;;;6.90;99.90;;;;;;5087965;28;20288;-68
2023/11/12 06:28:40;;;;;;;5.03;4.63;;;6.90;99.90;;;;;;5087747;28;20207;-67
2023/11/12 06:31:07;;;;;;;4.60;4.30;;;6.90;99.90;;;;;;5087819;28;20302;-69
2023/11/12 06:33:34;;;;;;;4.90;4.50;;;6.90;99.90;;;;;;5087870;28;20676;-67
2023/11/12 06:36:01;;;;;;;4.93;4.63;;;6.80;99.90;;;;;;5088161;28;20227;-67
2023/11/12 06:38:28;;;;;;;4.87;4.50;;;6.90;99.90;;;;;;5088177;28;20219;-67
2023/11/12 06:40:54;;;;;;;5.03;4.63;;;6.80;99.90;;;;;;5088019;28;20629;-67
2023/11/12 06:43:23;;;;;;;4.90;4.50;;;6.80;99.90;;;;;;5087906;28;20215;-68
2023/11/12 06:45:50;;;;;;;4.90;4.60;;;6.90;99.90;;;;;;5087692;28;20260;-66
2023/11/12 06:48:18;;;;;;;4.63;4.33;;;6.90;99.90;;;;;;5087741;28;20506;-66
2023/11/12 06:50:45;;;;;;;4.63;4.33;;;7.00;99.90;;;;;;5100059;28;20681;-66
2023/11/12 06:53:12;;;;;;;6.97;4.33;;;7.00;99.90;;;;;;5087563;28;20760;-66
2023/11/12 06:55:39;;;;;;;5.20;4.03;;;7.00;99.90;;;;;;5088058;28;20213;-67
2023/11/12 06:58:06;;;;;;;4.27;3.87;;;7.10;99.90;;;;;;5087594;28;20850;-67
2023/11/12 07:00:34;;;;;;;3.90;3.57;;;7.10;99.90;;;;;;5087565;28;20237;-67
2023/11/12 07:03:01;;;;;;;3.87;3.67;;;7.20;99.90;;;;;;5087558;28;20236;-67
2023/11/12 07:05:30;;;;;;;4.47;4.13;;;7.30;99.90;;;;;;5087292;28;20272;-67
2023/11/12 07:07:57;;;;;;;4.37;4.07;;;7.30;99.90;;;;;;5087294;28;20671;-67
2023/11/12 07:10:24;;;;;;;4.67;4.33;;;7.30;99.90;;;;;;5087680;28;20256;-67
2023/11/12 07:12:51;;;;;;;4.27;4.03;;;7.30;99.90;;;;;;5087238;28;20237;-66
2023/11/12 07:15:18;;;;;;;4.90;4.60;;;7.30;99.90;;;;;;5087384;28;20649;-67
2023/11/12 07:17:49;;;;;;;4.97;4.53;;;7.20;99.90;;;;;;5087438;28;20289;-67
2023/11/12 07:20:16;;;;;;;8.33;5.57;;;7.20;99.90;;;;;;5095088;28;20195;-67
2023/11/12 07:22:45;;;;;;;5.90;4.80;;;7.20;99.90;;;;;;5087071;28;20669;-67
2023/11/12 07:25:12;;;;;;;5.10;4.70;;;7.20;99.90;;;;;;5087170;28;20218;-67
2023/11/12 07:27:40;;;;;;;4.70;4.40;;;7.30;99.90;;;;;;5085820;28;20755;-67
2023/11/12 07:30:08;;;;;;;5.27;4.73;;;7.30;99.90;;;;;;5086840;28;20214;-67
2023/11/12 07:32:36;;;;;;;4.80;4.50;;;7.30;99.90;;;;;;5086649;28;20311;-66
2023/11/12 07:35:08;;;;;;;4.43;4.13;;;7.30;99.90;;;;;;5086349;28;20298;-67
2023/11/12 07:37:35;;;;;;;5.47;5.07;;;7.30;99.90;;;;;;5103296;28;20198;-68
2023/11/12 07:40:04;;;;;;;4.87;4.47;;;7.30;99.90;;;;;;5092303;28;20294;-67
2023/11/12 07:42:31;;;;;;;6.63;5.30;;;7.20;99.90;;;;;;5086542;28;20578;-68
2023/11/12 07:44:58;;;;;;;5.60;5.20;;;7.20;99.90;;;;;;5086944;28;20296;-67
2023/11/12 07:47:25;;;;;;;5.53;5.13;;;7.10;99.90;;;;;;5086281;28;20634;-67
2023/11/12 07:49:52;;;;;;;5.73;5.20;;;7.10;99.90;;;;;;5086842;28;20203;-67
2023/11/12 07:52:20;;;;;;;5.70;5.30;;;7.10;99.90;;;;;;5086540;28;20295;-67
2023/11/12 07:54:47;;;;;;;6.03;5.60;;;7.20;99.90;;;;;;5086606;28;20234;-68
2023/11/12 07:57:14;;;;;;;6.33;5.83;;;7.20;99.90;;;;;;5086361;28;20657;-67
2023/11/12 07:59:41;;;;;;;5.63;5.10;;;7.10;99.90;;;;;;5086324;28;20783;-67
2023/11/12 08:02:09;;;;;;;5.30;4.90;;;7.20;99.90;;;;;;5085659;28;20724;-67
2023/11/12 08:04:36;;;;;;;5.57;5.07;;;7.20;99.90;;;;;;5086349;28;20206;-67
2023/11/12 08:07:03;;;;;;;5.43;5.03;;;7.20;99.90;;;;;;5085613;28;20266;-67
2023/11/12 08:09:31;;;;;;;4.87;4.53;;;7.30;99.90;;;;;;5086221;28;20214;-67
2023/11/12 08:11:58;;;;;;;5.70;5.30;;;7.30;99.90;;;;;;5085909;28;20215;-67
2023/11/12 08:14:26;;;;;;;5.30;4.90;;;7.30;99.90;;;;;;5077328;28;20318;-67
2023/11/12 08:16:53;;;;;;;6.00;5.50;;;7.40;99.90;;;;;;5065625;28;20648;-67
2023/11/12 08:19:19;;;;;;;5.70;5.10;;;7.40;99.90;;;;;;5070100;28;20303;-67
2023/11/12 08:21:46;;;;;;;5.50;5.10;;;7.50;99.90;;;;;;5081685;28;20679;-66
2023/11/12 08:24:13;;;;;;;5.87;5.37;;;7.50;99.90;;;;;;5085684;28;20225;-67
2023/11/12 08:26:42;;;;;;;5.77;5.37;;;7.50;99.90;;;;;;5086222;28;20318;-65
2023/11/12 08:29:10;;;;;;;6.07;5.67;;;7.60;99.90;;;;;;5086183;28;20215;-66
2023/11/12 08:31:37;;;;;;;6.43;5.83;;;7.60;99.90;;;;;;5086006;28;20228;-67
2023/11/12 08:34:04;;;;;;;6.33;5.83;;;7.70;99.90;;;;;;5085473;28;20226;-67
2023/11/12 08:36:31;;;;;;;6.30;5.73;;;7.70;99.90;;;;;;5086110;28;20206;-67
2023/11/12 08:38:58;;;;;;;5.87;5.47;;;7.80;99.90;;;;;;5085663;28;20335;-67
2023/11/12 08:41:25;;;;;;;6.50;5.90;;;7.80;99.90;;;;;;5085998;28;20206;-67
2023/11/12 08:43:53;;;;;;;6.30;5.83;;;7.80;99.90;;;;;;5095661;28;20289;-67
2023/11/12 08:46:20;;;;;;;6.60;6.03;;;7.80;99.90;;;;;;5105738;28;20220;-66
2023/11/12 08:48:47;;;;;;;6.37;5.87;;;7.80;99.90;;;;;;5106382;28;20216;-66
2023/11/12 08:51:14;;;;;;;5.90;5.40;;;7.80;99.90;;;;;;5065657;28;20205;-67
2023/11/12 08:53:41;;;;;;;5.60;5.20;;;7.80;99.90;;;;;;5073701;28;20326;-67
2023/11/12 08:56:08;;;;;;;5.17;4.87;;;7.80;99.90;;;;;;5085675;28;20207;-67
2023/11/12 08:58:36;;;;;;;5.53;5.13;;;7.80;99.90;;;;;;5085575;28;20264;-67
2023/11/12 09:01:08;;;;;;;5.60;5.20;;;7.80;99.90;;;;;;5074779;28;20229;-66
2023/11/12 09:03:35;;;;;;;5.20;4.80;;;7.90;99.90;;;;;;5063720;28;20284;-67
2023/11/12 09:06:02;;;;;;;4.90;4.50;;;7.90;99.90;;;;;;5081265;28;20289;-67
2023/11/12 09:08:29;;;;;;;5.20;4.70;;;8.00;99.90;;;;;;5083424;28;20884;-67
2023/11/12 09:10:59;;;;;;;5.13;4.57;;;7.90;99.90;;;;;;5083872;28;20207;-68
2023/11/12 09:13:26;;;;;;;5.17;4.67;;;7.90;99.90;;;;;;5083011;28;20226;-69
2023/11/12 09:15:54;;;;;;;5.10;4.70;;;7.90;99.90;;;;;;5083608;28;20297;-68
2023/11/12 09:18:24;;;;;;;5.17;4.77;;;7.90;99.90;;;;;;5082530;28;20210;-68
2023/11/12 09:20:51;;;;;;;4.80;4.40;;;7.90;99.90;;;;;;5083643;28;20207;-68
2023/11/12 09:23:18;;;;;;;4.30;3.90;;;7.90;99.90;;;;;;5082861;28;20297;-68
2023/11/12 09:25:46;;;;;;;5.07;4.67;;;8.00;99.90;;;;;;5083482;28;20310;-68
2023/11/12 09:28:13;;;;;;;4.47;4.17;;;8.00;99.90;;;;;;5083496;28;20663;-68
2023/11/12 09:30:40;;;;;;;5.13;4.73;;;8.00;99.90;;;;;;5083494;28;20688;-68
2023/11/12 09:33:09;;;;;;;6.17;5.67;;;8.00;99.90;;;;;;5083230;28;20207;-68
2023/11/12 09:35:37;;;;;;;3.30;3.10;;;8.00;99.90;;;;;;5083431;28;20206;-68
2023/11/12 09:38:04;;;;;;;3.30;3.00;;;7.80;99.90;;;;;;5083034;28;20210;-68
2023/11/12 09:40:31;;;;;;;3.17;2.97;;;7.70;99.90;;;;;;5083197;28;20624;-68
2023/11/12 09:42:59;;;;;;;3.10;2.90;;;7.70;99.90;;;;;;5083474;28;20216;-68
2023/11/12 09:45:26;;;;;;;3.00;2.80;;;7.70;99.90;;;;;;5083250;28;20257;-68
2023/11/12 09:48:04;;;;;;;2.80;2.70;;;7.60;99.90;;;;;;5083890;28;20315;-68
2023/11/12 09:50:34;;;;;;;3.00;2.80;;;7.70;99.90;;;;;;5085988;28;20198;-68
2023/11/12 09:53:03;;;;;;;2.77;2.60;;;7.80;99.90;;;;;;5087896;28;20306;-68
2023/11/12 09:55:30;;;;;;;2.70;2.50;;;7.80;99.90;;;;;;5087472;28;20230;-68
2023/11/12 09:57:57;;;;;;;2.50;2.40;;;7.80;99.90;;;;;;5087275;28;20210;-68
2023/11/12 10:00:25;;;;;;;2.40;2.30;;;7.90;99.90;;;;;;5086982;28;20209;-68
2023/11/12 10:02:53;;;;;;;2.60;2.40;;;7.90;99.90;;;;;;5087000;28;20297;-68
2023/11/12 10:05:20;;;;;;;3.07;2.87;;;8.00;99.90;;;;;;5086900;28;20268;-68
2023/11/12 10:07:47;;;;;;;3.50;3.20;;;7.80;99.90;;;;;;5086434;28;21020;-68
2023/11/12 10:10:27;;;;;;;3.37;3.17;;;7.80;99.90;;;;;;5086967;28;20303;-68
2023/11/12 10:12:55;;;;;;;3.37;3.07;;;7.80;99.90;;;;;;5086511;28;20641;-68
2023/11/12 10:15:26;;;;;;;3.53;3.33;;;7.80;99.90;;;;;;5086761;28;20245;-68
2023/11/12 10:17:54;;;;;;;4.63;3.27;;;7.90;99.90;;;;;;5087167;28;20302;-68
2023/11/12 10:20:21;;;;;;;3.70;3.50;;;7.90;99.90;;;;;;5087164;28;20330;-68
2023/11/12 10:22:49;;;;;;;4.00;3.60;;;8.00;99.90;;;;;;5087136;28;20213;-68
2023/11/12 10:25:35;;;;;;;3.13;2.93;;;8.00;99.90;;;;;;5086605;28;20744;-68
2023/11/12 10:28:04;;;;;;;3.50;3.27;;;8.00;99.90;;;;;;5087394;28;20198;-68
2023/11/12 10:30:31;;;;;;;3.10;2.90;;;8.00;99.90;;;;;;5086754;28;20210;-68
2023/11/12 10:33:15;;;;;;;3.00;2.80;;;7.90;99.90;;;;;;5086718;28;20553;-68
2023/11/12 10:35:43;;;;;;;3.83;3.03;;;8.00;99.90;;;;;;5082493;28;20917;-68
2023/11/12 10:38:10;;;;;;;5.07;3.20;;;8.00;99.90;;;;;;5066006;28;20211;-68
2023/11/12 10:40:37;;;;;;;4.07;3.40;;;8.00;99.90;;;;;;5085984;28;20207;-68
2023/11/12 10:43:09;;;;;;;3.13;2.93;;;8.10;99.90;;;;;;5085659;28;20210;-68
2023/11/12 10:45:38;;;;;;;2.70;2.60;;;8.10;99.90;;;;;;5085899;28;20219;-68
2023/11/12 10:48:09;;;;;;;3.43;3.23;;;8.20;99.90;;;;;;5085914;28;20665;-68
2023/11/12 10:50:39;;;;;;;3.77;3.57;;;8.20;99.90;;;;;;5086496;28;20191;-68
2023/11/12 10:53:06;;;;;;;4.83;4.47;;;8.20;99.90;;;;;;5086207;28;20211;-68
2023/11/12 10:55:34;;;;;;;4.90;4.50;;;8.20;99.90;;;;;;5085956;28;20776;-68
2023/11/12 10:58:04;;;;;;;5.53;5.13;;;8.20;99.90;;;;;;5085974;28;20199;-68
2023/11/12 11:00:35;;;;;;;6.07;5.67;;;8.20;99.90;;;;;;5080184;28;20199;-68
2023/11/12 11:03:05;;;;;;;7.17;6.10;;;8.20;99.90;;;;;;5077869;28;20195;-68
2023/11/12 11:05:32;;;;;;;7.10;6.50;;;8.10;99.90;;;;;;5087113;28;20207;-68
2023/11/12 11:07:59;;;;;;;8.43;7.53;;;8.10;99.90;;;;;;5087142;28;20667;-67
2023/11/12 11:10:27;;;;;;;8.70;7.80;;;8.00;99.90;;;;;;5091201;28;20777;-67
2023/11/12 11:12:54;;;;;;;8.10;7.27;;;8.00;99.90;;;;;;5087391;28;20291;-67
2023/11/12 11:15:44;;;;;;;8.37;7.57;;;8.00;99.90;;;;;;5088232;28;20269;-66
2023/11/12 11:18:52;;;;;;;10.40;8.10;;;8.00;99.90;;;;;;5085638;28;20210;-66
2023/11/12 11:21:19;;;;;;;9.93;9.00;;;8.10;99.90;;;;;;5086221;28;20283;-67
2023/11/12 11:23:51;;;;;;;10.07;9.07;;;8.00;99.90;;;;;;5079964;28;21040;-67
2023/11/12 11:26:26;;;;;;;11.00;9.47;;;8.00;99.90;;;;;;5081446;28;20666;-67
2023/11/12 11:29:15;;;;;;;10.33;9.37;;;8.00;99.90;;;;;;5087151;28;20247;-67
2023/11/12 11:32:13;;;;;;;10.53;9.10;;;8.00;99.90;;;;;;5084722;28;20310;-68
2023/11/12 11:34:42;;;;;;;10.77;9.67;;;8.00;99.90;;;;;;5084206;28;20595;-67
2023/11/12 11:37:09;;;;;;;10.47;9.47;;;8.00;99.90;;;;;;5082396;28;20748;-67
2023/11/12 11:39:37;;;;;;;9.73;8.73;;;8.00;99.90;;;;;;5086535;28;20203;-67
2023/11/12 11:42:17;;;;;;;10.17;9.20;;;8.00;99.90;;;;;;5086671;28;20203;-67
2023/11/12 11:44:46;;;;;;;9.43;8.60;;;8.10;99.90;;;;;;5088538;28;20545;-67
2023/11/12 11:47:16;;;;;;;11.00;8.90;;;8.00;99.90;;;;;;5086296;28;20199;-67
2023/11/12 11:49:44;;;;;;;9.40;8.50;;;8.10;99.90;;;;;;5093661;28;20205;-67
2023/11/12 11:52:17;;;;;;;10.53;8.70;;;8.10;99.90;;;;;;5086773;28;20230;-68
2023/11/12 11:54:45;;;;;;;9.00;8.10;;;8.10;99.90;;;;;;5079181;28;20220;-67
2023/11/12 11:57:18;;;;;;;10.03;8.13;;;8.20;99.90;;;;;;5077773;28;20335;-67
2023/11/12 11:59:46;;;;;;;9.10;8.20;;;8.20;99.90;;;;;;5085482;28;20206;-67
2023/11/12 12:02:16;;;;;;;9.90;8.20;;;8.20;99.90;;;;;;5085932;28;20289;-67
2023/11/12 12:04:51;;;;;;;10.23;7.37;;;8.20;99.90;;;;;;5086229;28;20207;-67
2023/11/12 12:07:22;;;;;;;8.13;7.50;;;8.20;99.90;;;;;;5077290;28;20635;-67
2023/11/12 12:09:50;;;;;;;8.57;7.77;;;8.30;99.90;;;;;;5086268;28;20256;-67
2023/11/12 12:12:18;;;;;;;7.13;6.63;;;8.30;99.90;;;;;;5082852;28;20202;-68
2023/11/12 12:14:45;;;;;;;8.40;7.70;;;8.30;99.90;;;;;;5078844;28;20233;-68
2023/11/12 12:17:12;;;;;;;7.60;6.90;;;8.30;99.90;;;;;;5082780;28;20204;-68
2023/11/12 12:19:41;;;;;;;8.17;7.40;;;8.40;99.90;;;;;;5078608;28;20230;-67
2023/11/12 12:22:09;;;;;;;6.97;6.27;;;8.40;99.90;;;;;;5085372;28;20203;-68
2023/11/12 12:24:37;;;;;;;6.07;5.57;;;8.40;99.90;;;;;;5085805;28;20218;-68
2023/11/12 12:27:12;;;;;;;8.27;6.37;;;8.40;99.90;;;;;;5085539;28;20199;-68
2023/11/12 12:29:39;;;;;;;7.03;5.50;;;8.40;99.90;;;;;;5086126;28;20740;-67
2023/11/12 12:32:14;;;;;;;5.90;5.50;;;8.40;99.90;;;;;;5082187;28;20190;-67
2023/11/12 12:34:43;;;;;;;6.43;5.83;;;8.40;99.90;;;;;;5077355;28;20229;-68
2023/11/12 12:37:11;;;;;;;6.20;5.67;;;8.40;99.90;;;;;;5074336;28;20203;-68
2023/11/12 12:39:48;;;;;;;5.97;5.43;;;8.40;99.90;;;;;;5079644;28;20210;-67
2023/11/12 12:42:15;;;;;;;5.17;4.77;;;8.40;99.90;;;;;;5085206;28;20203;-67
2023/11/12 12:44:47;;;;;;;6.87;5.87;;;8.40;99.90;;;;;;5085732;28;20632;-67
2023/11/12 12:47:29;;;;;;;6.20;4.60;;;8.30;99.90;;;;;;5076273;28;20191;-67
2023/11/12 12:49:58;;;;;;;6.93;5.70;;;8.20;99.90;;;;;;5073641;28;20188;-67
2023/11/12 12:52:25;;;;;;;6.53;5.93;;;8.30;99.90;;;;;;5085240;28;20202;-68
2023/11/12 12:54:53;;;;;;;6.47;5.87;;;8.30;99.90;;;;;;5073387;28;20300;-67
2023/11/12 12:57:23;;;;;;;7.87;7.07;;;8.30;99.90;;;;;;5084953;28;20202;-67
2023/11/12 12:59:50;;;;;;;7.57;6.70;;;8.40;99.90;;;;;;5076502;28;20206;-68
2023/11/12 13:02:17;;;;;;;6.33;5.70;;;8.40;99.90;;;;;;5084340;28;20295;-67
2023/11/12 13:04:46;;;;;;;6.80;6.20;;;8.40;99.90;;;;;;5081267;28;20318;-67